Tuesday, February 20, 2018, 3:38 PM GMT
Back to Local

CYCX, Gagetown Can-Mil

Location: , , Canada Lat: 45.833
Local Time: 3:38 PM GMT (15:38 GMT) Lon: -66.433
Time Zone: GMT Elev: 167 ft

Show me the last for .
Show Coded

Time T Td Feel RH Dir Speed Gust Alt SLP Vis Weather Sky Remarks
2018-02-20 15:00 39 36 35 86 80° 6 - 30.30 30.31 15 FEW003 BKN053 OVC094 None
2018-02-20 14:00 37 36 33 93 20° 6 - 30.31 30.32 9 FEW001 OVC065 None
2018-02-20 13:36 37 37 35 100 20° 3 - 30.30 30.31 2 BR BKN001 OVC067 None
2018-02-20 13:00 37 36 - 93 30° 2 - 30.30 30.31 0 FG VV001 None
2018-02-20 12:00 34 34 - 100 - Calm - 30.29 30.30 0 -RA FG VV001 None
2018-02-20 11:00 34 34 - 100 - Calm - 30.27 30.27 0 -RA FG VV002 None
2018-02-20 10:00 36 34 - 93 - Calm - 30.25 30.25 0 -RA FG VV001 None
2018-02-20 09:30 36 34 - 93 - Calm - 30.26 30.26 0 -RA FG OVC019 None
2018-02-20 09:00 36 34 33 93 340° 3 - 30.25 30.26 2 BR BKN019 OVC036 None
2018-02-20 08:00 37 36 - 93 220° 2 - 30.24 30.24 4 BR BKN019 OVC036 None
2018-02-20 07:00 37 36 - 93 - Calm - 30.23 30.24 4 BR SCT019 OVC055 None
2018-02-20 06:24 39 37 36 93 170° 5 - 30.24 30.25 4 BR BKN019 OVC055 None
2018-02-20 06:00 39 37 36 93 180° 5 - 30.25 30.25 12 -DZ SCT015 OVC028 None
2018-02-20 05:00 39 37 36 93 190° 5 - 30.26 30.27 6 -RA BKN015 OVC035 None
2018-02-20 04:00 39 36 35 86 200° 6 - 30.28 30.29 6 -RA OVC015 None
2018-02-20 03:00 41 34 36 75 190° 7 - 30.28 30.29 15 -RA OVC015 None
2018-02-20 02:00 39 34 34 80 220° 7 - 30.29 30.29 15 BKN022 None
2018-02-20 01:00 39 32 30 75 220° 14 20 30.30 30.31 15 BKN022 None
2018-02-20 00:00 39 30 30 69 210° 12 17 30.30 30.31 15 BKN030 None
2018-02-19 23:00 39 28 30 64 210° 17 - 30.32 30.33 15 BKN029 OVC230 None
2018-02-19 22:00 39 27 28 60 200° 14 24 30.32 30.33 15 SCT035 BKN230 None
2018-02-19 21:00 41 27 31 56 200° 13 24 30.33 30.34 15 SCT035 BKN230 None
2018-02-19 20:00 41 27 31 56 190° 12 25 30.33 30.34 15 SCT035 None
2018-02-19 19:00 39 27 29 60 210° 15 23 30.38 30.39 15 BKN040 None
2018-02-19 18:00 39 23 30 51 190° 18 - 30.40 30.41 15 BKN040 Pressure falling rapidly
2018-02-19 17:00 37 19 26 47 200° 18 25 30.47 30.47 15 FEW040 SCT090 SCT240 None
2018-02-19 16:00 36 16 26 43 190° 15 - 30.51 30.52 15 FEW030 BKN100 BKN240 None

Support USWX by starting your Amazon purchase here.